Time;durP1;ratioP1;P1;durP2;ratioP2;P2;SDS_P1;SDS_P2;PMS_P1;PMS_P2;Temp;Humidity;BMP_temperature;BMP_pressure;BME280_temperature;BME280_humidity;BME280_pressure;Samples;Min_cycle;Max_cycle;Signal;HPM_P1;HPM_P2
2024/01/27 00:01:50;;;;;;;0.80;0.70;;;22.10;49.40;;;;;;5083162;28;20028;-69
2024/01/27 00:04:16;;;;;;;1.10;0.90;;;22.10;49.40;;;;;;5087011;28;20035;-68
2024/01/27 00:06:41;;;;;;;1.20;0.80;;;22.10;49.40;;;;;;5081927;28;20103;-68
2024/01/27 00:09:07;;;;;;;1.55;0.70;;;22.10;49.80;;;;;;5066740;28;20031;-69
2024/01/27 00:11:33;;;;;;;1.10;0.73;;;22.10;49.80;;;;;;5090462;28;20031;-68
2024/01/27 00:14:01;;;;;;;1.15;0.77;;;22.10;49.20;;;;;;5089419;28;20597;-69
2024/01/27 00:16:27;;;;;;;1.63;0.80;;;22.10;49.20;;;;;;5089413;28;20032;-67
2024/01/27 00:18:53;;;;;;;1.50;0.70;;;22.10;49.20;;;;;;5086094;28;20368;-69
2024/01/27 00:21:21;;;;;;;0.80;0.70;;;22.10;49.20;;;;;;5084507;28;20111;-68
2024/01/27 00:23:46;;;;;;;1.00;0.70;;;22.10;49.10;;;;;;5076861;28;20035;-68
2024/01/27 00:26:13;;;;;;;1.25;0.85;;;22.10;49.10;;;;;;5082232;28;20090;-68
2024/01/27 00:28:39;;;;;;;1.13;0.82;;;22.10;49.10;;;;;;5087994;28;20028;-67
2024/01/27 00:31:05;;;;;;;1.27;0.90;;;22.10;49.00;;;;;;5088613;28;20092;-67
2024/01/27 00:33:32;;;;;;;1.40;0.80;;;22.10;49.10;;;;;;5089695;28;20039;-69
2024/01/27 00:35:58;;;;;;;1.15;0.80;;;22.20;49.20;;;;;;5085905;28;20016;-68
2024/01/27 00:38:23;;;;;;;1.25;0.80;;;22.10;49.10;;;;;;5090149;28;20134;-69
2024/01/27 00:40:49;;;;;;;1.27;0.80;;;22.10;49.10;;;;;;5081066;28;20032;-68
2024/01/27 00:43:15;;;;;;;1.05;0.60;;;22.10;49.10;;;;;;5078173;28;20032;-69
2024/01/27 00:45:40;;;;;;;1.08;0.75;;;22.10;49.10;;;;;;5078826;28;20027;-69
2024/01/27 00:48:06;;;;;;;2.78;0.90;;;22.10;49.10;;;;;;5080958;28;20113;-67
2024/01/27 00:50:32;;;;;;;0.63;0.60;;;22.10;49.10;;;;;;5080450;28;20027;-62
2024/01/27 00:52:57;;;;;;;0.90;0.70;;;22.10;49.10;;;;;;5077087;28;20468;-62
2024/01/27 00:55:23;;;;;;;1.02;0.70;;;22.10;49.50;;;;;;5078594;28;20036;-64
2024/01/27 00:57:49;;;;;;;0.82;0.70;;;22.10;49.00;;;;;;5079045;28;20038;-62
2024/01/27 01:00:15;;;;;;;0.88;0.70;;;22.10;49.00;;;;;;5075983;28;20653;-62
2024/01/27 01:02:40;;;;;;;0.77;0.60;;;22.10;49.00;;;;;;5077805;28;20028;-63
2024/01/27 01:05:07;;;;;;;0.90;0.60;;;22.10;49.00;;;;;;5093928;28;20384;-63
2024/01/27 01:07:33;;;;;;;0.75;0.70;;;22.00;48.90;;;;;;5078219;28;20518;-61
2024/01/27 01:09:59;;;;;;;0.95;0.70;;;22.10;49.00;;;;;;5080008;28;20024;-62
2024/01/27 01:12:25;;;;;;;1.00;0.77;;;22.00;48.90;;;;;;5080593;28;20746;-63
2024/01/27 01:14:52;;;;;;;0.68;0.52;;;22.00;49.00;;;;;;5079172;28;20115;-63
2024/01/27 01:17:17;;;;;;;0.73;0.70;;;22.00;49.00;;;;;;5079359;28;20376;-62
2024/01/27 01:19:43;;;;;;;1.20;0.70;;;22.00;49.50;;;;;;5069077;28;20027;-62
2024/01/27 01:22:09;;;;;;;0.90;0.63;;;21.90;49.00;;;;;;5079099;28;20078;-62
2024/01/27 01:24:34;;;;;;;0.57;0.57;;;21.90;49.00;;;;;;5078599;28;20345;-62
2024/01/27 01:27:00;;;;;;;0.80;0.68;;;21.90;49.00;;;;;;5079851;28;20028;-62
2024/01/27 01:29:26;;;;;;;0.73;0.63;;;21.90;49.00;;;;;;5079037;28;20028;-64
2024/01/27 01:31:52;;;;;;;0.73;0.60;;;21.80;49.00;;;;;;5068193;28;20028;-63
2024/01/27 01:34:17;;;;;;;0.73;0.60;;;21.80;49.00;;;;;;5077103;28;20544;-62
2024/01/27 01:36:43;;;;;;;0.75;0.60;;;21.80;49.00;;;;;;5062391;28;20020;-62
2024/01/27 01:39:11;;;;;;;0.63;0.57;;;21.80;49.10;;;;;;5085902;28;20056;-63
2024/01/27 01:41:36;;;;;;;0.85;0.70;;;21.80;49.10;;;;;;5087327;28;20491;-67
2024/01/27 01:44:02;;;;;;;0.82;0.63;;;21.80;49.10;;;;;;5086132;28;20127;-67
2024/01/27 01:46:28;;;;;;;0.85;0.60;;;21.80;49.10;;;;;;5082187;28;20024;-68
2024/01/27 01:48:54;;;;;;;0.80;0.60;;;21.70;49.10;;;;;;5085168;28;20092;-67
2024/01/27 01:51:20;;;;;;;0.68;0.60;;;21.70;49.10;;;;;;5085424;28;20028;-68
2024/01/27 01:53:48;;;;;;;1.15;0.70;;;21.70;49.10;;;;;;5084850;28;20025;-67
2024/01/27 01:56:17;;;;;;;1.05;0.70;;;21.70;49.10;;;;;;5083919;28;20054;-68
2024/01/27 01:58:43;;;;;;;0.68;0.52;;;21.70;49.70;;;;;;5083262;28;20388;-67
2024/01/27 02:01:09;;;;;;;0.82;0.65;;;21.60;49.10;;;;;;5085118;28;20033;-68
2024/01/27 02:03:35;;;;;;;1.08;0.70;;;21.60;49.20;;;;;;5087332;28;20483;-68
2024/01/27 02:06:00;;;;;;;0.70;0.70;;;21.60;49.20;;;;;;5084157;28;20043;-67
2024/01/27 02:08:26;;;;;;;0.73;0.50;;;21.60;49.20;;;;;;5084178;28;20020;-67
2024/01/27 02:10:51;;;;;;;0.60;0.45;;;21.60;49.20;;;;;;5086752;28;20032;-67
2024/01/27 02:13:22;;;;;;;0.65;0.60;;;21.50;49.20;;;;;;5085351;28;20106;-67
2024/01/27 02:15:49;;;;;;;0.52;0.50;;;21.50;49.20;;;;;;5083931;28;20089;-68
2024/01/27 02:18:15;;;;;;;0.75;0.60;;;21.50;49.30;;;;;;5082908;28;20573;-67
2024/01/27 02:20:41;;;;;;;0.85;0.70;;;21.50;49.30;;;;;;5084067;28;20048;-67
2024/01/27 02:23:07;;;;;;;0.65;0.65;;;21.50;49.30;;;;;;5086217;28;20056;-67
2024/01/27 02:25:34;;;;;;;0.70;0.60;;;21.40;49.20;;;;;;5083642;28;20522;-67
2024/01/27 02:28:00;;;;;;;0.80;0.68;;;21.40;49.30;;;;;;5086485;28;20162;-68
2024/01/27 02:30:25;;;;;;;0.57;0.57;;;21.40;49.30;;;;;;5087401;28;20036;-64
2024/01/27 02:32:52;;;;;;;0.68;0.57;;;21.40;49.30;;;;;;5099345;28;20024;-63
2024/01/27 02:35:17;;;;;;;0.90;0.60;;;21.40;49.30;;;;;;5084507;28;20044;-63
2024/01/27 02:37:43;;;;;;;0.70;0.60;;;21.40;49.40;;;;;;5086649;28;20033;-63
2024/01/27 02:40:09;;;;;;;0.70;0.55;;;21.40;49.40;;;;;;5085010;28;20065;-62
2024/01/27 02:42:36;;;;;;;0.77;0.60;;;21.30;49.30;;;;;;5084182;28;20023;-62
2024/01/27 02:45:03;;;;;;;0.65;0.60;;;21.30;49.40;;;;;;5084077;28;20473;-64
2024/01/27 02:47:29;;;;;;;0.80;0.50;;;21.30;49.40;;;;;;5083806;28;20048;-64
2024/01/27 02:49:54;;;;;;;0.70;0.52;;;21.30;49.40;;;;;;5081870;28;20064;-63
2024/01/27 02:52:20;;;;;;;0.80;0.57;;;21.30;49.50;;;;;;5081644;28;20032;-63
2024/01/27 02:54:46;;;;;;;0.57;0.57;;;21.30;49.40;;;;;;5082454;28;20028;-64
2024/01/27 02:57:12;;;;;;;0.50;0.50;;;21.30;49.50;;;;;;5080767;28;20154;-63
2024/01/27 02:59:38;;;;;;;0.88;0.57;;;21.20;49.40;;;;;;5078947;28;20384;-61
2024/01/27 03:02:05;;;;;;;1.25;0.60;;;21.20;49.50;;;;;;5079661;28;20035;-63
2024/01/27 03:04:31;;;;;;;0.73;0.60;;;21.20;49.50;;;;;;5081934;28;20121;-62
2024/01/27 03:06:56;;;;;;;0.70;0.50;;;21.10;49.40;;;;;;5082147;28;20058;-63
2024/01/27 03:09:22;;;;;;;0.70;0.50;;;21.10;49.40;;;;;;5081993;28;20032;-63
2024/01/27 03:11:47;;;;;;;0.65;0.60;;;21.10;49.50;;;;;;5079875;28;20526;-62
2024/01/27 03:14:13;;;;;;;0.55;0.50;;;21.10;49.50;;;;;;5081635;28;20123;-62
2024/01/27 03:16:39;;;;;;;0.80;0.50;;;21.10;49.50;;;;;;5080222;28;20012;-62
2024/01/27 03:19:04;;;;;;;0.80;0.50;;;21.10;49.60;;;;;;5080231;28;20027;-62
2024/01/27 03:21:30;;;;;;;0.88;0.57;;;21.00;49.50;;;;;;5080138;28;20032;-63
2024/01/27 03:23:55;;;;;;;0.90;0.68;;;21.00;50.10;;;;;;5080281;28;20024;-62
2024/01/27 03:26:21;;;;;;;0.90;0.63;;;21.10;49.60;;;;;;5080955;28;20158;-64
2024/01/27 03:28:47;;;;;;;0.68;0.60;;;21.00;49.60;;;;;;5079301;28;20380;-63
2024/01/27 03:31:13;;;;;;;0.60;0.60;;;21.00;49.60;;;;;;5079775;28;20093;-62
2024/01/27 03:33:38;;;;;;;0.60;0.60;;;21.00;49.60;;;;;;5082469;28;20085;-62
2024/01/27 03:36:13;;;;;;;0.85;0.60;;;21.00;49.60;;;;;;5081897;28;20056;-62
2024/01/27 03:38:43;;;;;;;0.63;0.55;;;21.00;49.60;;;;;;5080624;28;20099;-63
2024/01/27 03:41:08;;;;;;;0.70;0.60;;;21.00;49.60;;;;;;5080428;28;20392;-63
2024/01/27 03:43:34;;;;;;;0.82;0.70;;;21.00;49.60;;;;;;5080440;28;20024;-62
2024/01/27 03:46:00;;;;;;;0.50;0.50;;;20.90;49.60;;;;;;5079863;28;20020;-62
2024/01/27 03:48:26;;;;;;;0.52;0.50;;;20.90;49.60;;;;;;5079184;28;20067;-62
2024/01/27 03:50:52;;;;;;;0.77;0.47;;;20.90;49.60;;;;;;5081066;28;20028;-62
2024/01/27 03:53:17;;;;;;;0.90;0.50;;;20.90;49.60;;;;;;5080695;28;20028;-63
2024/01/27 03:55:43;;;;;;;0.77;0.50;;;20.90;49.70;;;;;;5079768;28;20024;-63
2024/01/27 03:58:08;;;;;;;0.50;0.50;;;20.90;49.70;;;;;;5078682;28;20021;-63
2024/01/27 04:00:34;;;;;;;0.60;0.55;;;20.90;49.70;;;;;;5076481;28;20086;-67
2024/01/27 04:03:00;;;;;;;0.70;0.60;;;20.90;49.70;;;;;;5078742;28;20020;-66
2024/01/27 04:05:27;;;;;;;0.77;0.60;;;20.80;49.70;;;;;;5080293;28;20040;-66
2024/01/27 04:07:52;;;;;;;0.68;0.52;;;20.80;49.70;;;;;;5078510;28;20034;-66
2024/01/27 04:10:19;;;;;;;0.70;0.52;;;20.80;49.70;;;;;;5080934;28;20025;-66
2024/01/27 04:12:44;;;;;;;0.55;0.55;;;20.80;49.80;;;;;;5079763;28;20032;-66
2024/01/27 04:15:10;;;;;;;0.63;0.50;;;20.80;49.80;;;;;;5079986;28;20028;-67
2024/01/27 04:17:37;;;;;;;0.90;0.68;;;20.80;49.80;;;;;;5079722;28;20020;-66
2024/01/27 04:20:04;;;;;;;0.52;0.52;;;20.70;49.80;;;;;;5083352;28;20068;-66
2024/01/27 04:22:30;;;;;;;0.60;0.60;;;20.70;49.80;;;;;;5079859;28;20600;-62
2024/01/27 04:24:56;;;;;;;0.57;0.50;;;20.70;49.80;;;;;;5079280;28;20174;-63
2024/01/27 04:27:22;;;;;;;0.68;0.47;;;20.70;49.80;;;;;;5080100;28;20074;-63
2024/01/27 04:29:48;;;;;;;0.60;0.50;;;20.70;49.80;;;;;;5081018;28;20050;-63
2024/01/27 04:32:13;;;;;;;0.68;0.57;;;20.70;49.80;;;;;;5080997;28;20047;-63
2024/01/27 04:34:39;;;;;;;0.47;0.45;;;20.70;49.80;;;;;;5079940;28;20039;-62
2024/01/27 04:37:05;;;;;;;0.60;0.50;;;20.60;50.30;;;;;;5079395;28;20470;-62
2024/01/27 04:39:31;;;;;;;0.80;0.50;;;20.70;49.80;;;;;;5079619;28;20028;-62
2024/01/27 04:41:57;;;;;;;0.50;0.50;;;20.70;49.90;;;;;;5078359;28;20142;-63
2024/01/27 04:44:22;;;;;;;0.52;0.50;;;20.70;49.90;;;;;;5069838;28;20480;-62
2024/01/27 04:46:48;;;;;;;0.50;0.50;;;20.70;49.90;;;;;;5078092;28;20035;-63
2024/01/27 04:49:16;;;;;;;0.93;0.52;;;20.60;49.90;;;;;;5081420;28;20039;-62
2024/01/27 04:51:42;;;;;;;0.65;0.45;;;20.60;49.90;;;;;;5079861;28;20028;-66
2024/01/27 04:54:08;;;;;;;0.82;0.60;;;20.60;49.90;;;;;;5079714;28;20024;-66
2024/01/27 04:56:34;;;;;;;0.63;0.50;;;20.60;49.90;;;;;;5079730;28;20476;-66
2024/01/27 04:59:00;;;;;;;0.57;0.50;;;20.60;49.90;;;;;;5095657;28;20047;-66
2024/01/27 05:01:25;;;;;;;0.95;0.60;;;20.60;50.00;;;;;;5076933;28;20028;-66
2024/01/27 05:03:51;;;;;;;0.52;0.50;;;20.60;50.00;;;;;;5078875;28;20020;-66
2024/01/27 05:06:17;;;;;;;0.80;0.60;;;20.60;50.50;;;;;;5080255;28;20480;-66
2024/01/27 05:08:43;;;;;;;0.50;0.50;;;20.60;50.00;;;;;;5080365;28;20042;-66
2024/01/27 05:11:09;;;;;;;0.50;0.50;;;20.50;50.50;;;;;;5080178;28;20032;-62
2024/01/27 05:13:37;;;;;;;0.50;0.50;;;20.50;50.00;;;;;;5079267;28;20115;-61
2024/01/27 05:16:03;;;;;;;0.50;0.50;;;20.50;50.00;;;;;;5077988;28;20028;-62
2024/01/27 05:18:29;;;;;;;0.52;0.50;;;20.50;50.00;;;;;;5077335;28;20439;-63
2024/01/27 05:20:54;;;;;;;1.10;0.70;;;20.50;50.10;;;;;;5079744;28;20485;-63
2024/01/27 05:23:20;;;;;;;0.60;0.50;;;20.50;50.00;;;;;;5078620;28;20463;-62
2024/01/27 05:25:45;;;;;;;0.50;0.50;;;20.50;50.10;;;;;;5079501;28;20114;-61
2024/01/27 05:28:11;;;;;;;0.50;0.50;;;20.50;50.10;;;;;;5079286;28;20034;-62
2024/01/27 05:30:36;;;;;;;0.50;0.40;;;20.50;50.10;;;;;;5079101;28;20028;-61
2024/01/27 05:33:02;;;;;;;0.65;0.60;;;20.40;50.10;;;;;;5078607;28;20048;-61
2024/01/27 05:35:28;;;;;;;0.60;0.60;;;20.50;50.10;;;;;;5079097;28;20035;-62
2024/01/27 05:37:53;;;;;;;0.50;0.40;;;20.50;50.10;;;;;;5078362;28;20023;-61
2024/01/27 05:40:19;;;;;;;0.52;0.50;;;20.40;50.10;;;;;;5081577;28;20025;-63
2024/01/27 05:42:45;;;;;;;0.68;0.50;;;20.40;50.10;;;;;;5078810;28;20060;-62
2024/01/27 05:45:12;;;;;;;0.40;0.40;;;20.40;50.20;;;;;;5079571;28;20024;-61
2024/01/27 05:47:37;;;;;;;0.65;0.55;;;20.40;50.10;;;;;;5076974;28;20024;-61
2024/01/27 05:50:04;;;;;;;0.40;0.40;;;20.40;50.20;;;;;;5079819;28;20041;-63
2024/01/27 05:52:30;;;;;;;0.40;0.40;;;20.40;50.20;;;;;;5078034;28;20111;-61
2024/01/27 05:54:55;;;;;;;0.50;0.50;;;20.40;50.20;;;;;;5060965;28;20115;-61
2024/01/27 05:57:21;;;;;;;0.98;0.40;;;20.40;50.20;;;;;;5079259;28;20440;-61
2024/01/27 05:59:46;;;;;;;0.40;0.40;;;20.40;50.30;;;;;;5079798;28;20118;-61
2024/01/27 06:02:12;;;;;;;0.52;0.45;;;20.40;50.30;;;;;;5075443;28;20024;-65
2024/01/27 06:04:38;;;;;;;0.60;0.50;;;20.40;50.30;;;;;;5079283;28;20027;-65
2024/01/27 06:07:03;;;;;;;0.77;0.50;;;20.30;50.30;;;;;;5077568;28;20075;-66
2024/01/27 06:09:29;;;;;;;0.57;0.50;;;20.30;50.30;;;;;;5060716;28;20029;-65
2024/01/27 06:11:58;;;;;;;0.50;0.43;;;20.30;50.30;;;;;;5081560;28;20039;-65
2024/01/27 06:14:23;;;;;;;0.50;0.50;;;20.30;50.30;;;;;;5079239;28;20435;-66
2024/01/27 06:16:51;;;;;;;0.52;0.50;;;20.30;50.30;;;;;;5079293;28;20058;-65
2024/01/27 06:19:16;;;;;;;0.40;0.40;;;20.30;50.30;;;;;;5076785;28;20031;-65
2024/01/27 06:21:42;;;;;;;0.75;0.50;;;20.30;50.40;;;;;;5078134;28;20044;-62
2024/01/27 06:24:08;;;;;;;0.80;0.50;;;20.30;50.40;;;;;;5081174;28;20495;-61
2024/01/27 06:26:33;;;;;;;0.50;0.50;;;20.30;50.40;;;;;;5081394;28;20077;-63
2024/01/27 06:29:00;;;;;;;0.50;0.47;;;20.30;50.40;;;;;;5072019;28;20024;-63
2024/01/27 06:31:25;;;;;;;0.40;0.40;;;20.20;50.40;;;;;;5083920;28;20027;-61
2024/01/27 06:33:52;;;;;;;0.75;0.50;;;20.30;50.40;;;;;;5081660;28;20021;-61
2024/01/27 06:36:17;;;;;;;0.50;0.47;;;20.30;50.40;;;;;;5082630;28;20035;-63
2024/01/27 06:38:43;;;;;;;0.50;0.50;;;20.30;50.50;;;;;;5080911;28;20476;-61
2024/01/27 06:41:10;;;;;;;0.68;0.50;;;20.30;50.40;;;;;;5081840;28;20032;-62
2024/01/27 06:43:35;;;;;;;0.80;0.60;;;20.20;50.40;;;;;;5081118;28;20081;-62
2024/01/27 06:46:01;;;;;;;0.50;0.50;;;20.20;50.40;;;;;;5082619;28;20071;-62
2024/01/27 06:48:26;;;;;;;0.60;0.50;;;20.20;50.40;;;;;;5079043;28;20035;-63
2024/01/27 06:50:52;;;;;;;0.45;0.45;;;20.20;50.50;;;;;;5080605;28;20038;-61
2024/01/27 06:53:19;;;;;;;0.70;0.50;;;20.20;51.00;;;;;;5082890;28;20108;-61
2024/01/27 06:55:45;;;;;;;0.82;0.68;;;20.20;50.50;;;;;;5081640;28;20119;-62
2024/01/27 06:58:10;;;;;;;1.00;0.60;;;20.20;50.50;;;;;;5081990;28;20585;-63
2024/01/27 07:00:36;;;;;;;0.73;0.60;;;20.20;50.50;;;;;;5079645;28;20031;-62
2024/01/27 07:03:02;;;;;;;0.73;0.50;;;20.20;50.50;;;;;;5061031;28;20027;-62
2024/01/27 07:05:28;;;;;;;0.65;0.60;;;20.20;50.50;;;;;;5081616;28;20048;-61
2024/01/27 07:07:54;;;;;;;1.00;0.60;;;20.20;50.60;;;;;;5079617;28;20062;-62
2024/01/27 07:10:20;;;;;;;0.55;0.50;;;20.20;50.60;;;;;;5080322;28;20032;-62
2024/01/27 07:12:45;;;;;;;0.43;0.40;;;20.20;50.60;;;;;;5082456;28;20042;-68
2024/01/27 07:15:11;;;;;;;0.60;0.50;;;20.20;50.60;;;;;;5081000;28;20310;-69
2024/01/27 07:17:37;;;;;;;0.40;0.40;;;20.10;50.50;;;;;;5060652;28;20020;-67
2024/01/27 07:20:03;;;;;;;0.70;0.55;;;20.20;51.20;;;;;;5070489;28;20031;-68
2024/01/27 07:22:28;;;;;;;0.85;0.52;;;20.20;50.60;;;;;;5063812;28;20024;-68
2024/01/27 07:24:55;;;;;;;0.47;0.40;;;20.10;50.60;;;;;;5080174;28;20081;-68
2024/01/27 07:27:22;;;;;;;0.45;0.45;;;20.10;50.60;;;;;;5080281;28;20052;-68
2024/01/27 07:29:48;;;;;;;0.50;0.45;;;20.10;51.10;;;;;;5082056;28;20479;-68
2024/01/27 07:32:13;;;;;;;0.50;0.32;;;20.10;50.60;;;;;;5079168;28;20031;-66
2024/01/27 07:34:43;;;;;;;0.65;0.50;;;20.10;50.60;;;;;;5079028;28;20066;-66
2024/01/27 07:37:09;;;;;;;0.43;0.43;;;20.10;50.60;;;;;;5082970;28;20099;-66
2024/01/27 07:39:35;;;;;;;0.55;0.50;;;20.10;51.10;;;;;;5082963;28;20103;-66
2024/01/27 07:42:01;;;;;;;0.40;0.40;;;20.10;50.60;;;;;;5081367;28;20752;-66
2024/01/27 07:44:27;;;;;;;0.65;0.50;;;20.10;50.60;;;;;;5078860;28;20071;-66
2024/01/27 07:46:53;;;;;;;0.57;0.52;;;20.10;50.70;;;;;;5064263;28;20028;-66
2024/01/27 07:49:19;;;;;;;0.70;0.52;;;20.10;51.20;;;;;;5079599;28;20070;-66
2024/01/27 07:51:45;;;;;;;0.43;0.43;;;20.10;50.70;;;;;;5081197;28;20144;-62
2024/01/27 07:54:10;;;;;;;0.45;0.45;;;20.10;50.60;;;;;;5080798;28;20032;-62
2024/01/27 07:56:38;;;;;;;0.60;0.50;;;20.10;50.60;;;;;;5082026;28;20408;-63
2024/01/27 07:59:03;;;;;;;0.50;0.50;;;20.10;50.70;;;;;;5080804;28;20028;-62
2024/01/27 08:01:29;;;;;;;0.40;0.40;;;20.10;50.70;;;;;;5079793;28;20542;-62
2024/01/27 08:03:54;;;;;;;0.52;0.50;;;20.10;50.70;;;;;;5077959;28;20097;-61
2024/01/27 08:06:29;;;;;;;0.95;0.50;;;20.10;50.70;;;;;;5079257;28;20032;-63
2024/01/27 08:08:54;;;;;;;0.63;0.50;;;20.10;50.70;;;;;;5081507;28;20020;-62
2024/01/27 08:11:20;;;;;;;0.60;0.50;;;20.10;50.70;;;;;;5079909;28;20035;-63
2024/01/27 08:13:45;;;;;;;0.43;0.40;;;20.00;50.60;;;;;;5078926;28;20432;-62
2024/01/27 08:16:12;;;;;;;1.00;0.60;;;20.10;50.70;;;;;;5077310;28;20072;-63
2024/01/27 08:18:39;;;;;;;1.23;0.60;;;20.10;50.70;;;;;;5059104;28;20028;-62
2024/01/27 08:21:05;;;;;;;0.60;0.60;;;20.00;50.70;;;;;;5096934;28;20023;-63
2024/01/27 08:23:31;;;;;;;0.65;0.60;;;20.00;51.20;;;;;;5080225;28;20024;-64
2024/01/27 08:25:56;;;;;;;0.95;0.52;;;20.00;50.70;;;;;;5080602;28;20104;-62
2024/01/27 08:28:22;;;;;;;0.60;0.50;;;20.00;50.70;;;;;;5080215;28;20040;-62
2024/01/27 08:30:48;;;;;;;0.55;0.55;;;20.00;50.70;;;;;;5077802;28;20376;-63
2024/01/27 08:33:14;;;;;;;0.50;0.50;;;20.00;50.70;;;;;;5077369;28;20055;-62
2024/01/27 08:35:40;;;;;;;0.60;0.50;;;20.00;50.70;;;;;;5077213;28;20511;-61
2024/01/27 08:38:06;;;;;;;0.63;0.50;;;20.00;51.20;;;;;;5077726;28;20025;-62
2024/01/27 08:40:32;;;;;;;1.25;0.60;;;20.00;50.70;;;;;;5062411;28;20028;-62
2024/01/27 08:42:58;;;;;;;0.70;0.60;;;20.00;50.70;;;;;;5080381;28;20016;-63
2024/01/27 08:45:25;;;;;;;0.52;0.50;;;20.00;50.80;;;;;;5078508;28;20056;-62
2024/01/27 08:47:51;;;;;;;0.98;0.60;;;20.00;50.70;;;;;;5080908;28;20085;-61
2024/01/27 08:50:16;;;;;;;1.67;0.68;;;20.00;50.80;;;;;;5068203;28;20024;-64
2024/01/27 08:52:42;;;;;;;0.63;0.57;;;20.00;50.70;;;;;;5078287;28;20071;-61
2024/01/27 08:55:08;;;;;;;0.68;0.63;;;20.00;50.70;;;;;;5081584;28;20103;-63
2024/01/27 08:57:33;;;;;;;0.63;0.60;;;20.00;50.70;;;;;;5079124;28;20447;-64
2024/01/27 08:59:59;;;;;;;1.05;0.60;;;20.00;50.70;;;;;;5078525;28;20024;-63
2024/01/27 09:02:25;;;;;;;0.73;0.60;;;20.00;50.80;;;;;;5064173;28;20049;-63
2024/01/27 09:04:50;;;;;;;0.65;0.55;;;20.00;50.80;;;;;;5076710;28;20108;-62
2024/01/27 09:07:17;;;;;;;0.88;0.60;;;20.00;50.80;;;;;;5077068;28;20028;-63
2024/01/27 09:09:43;;;;;;;1.33;0.63;;;20.00;51.30;;;;;;5082959;28;20444;-62
2024/01/27 09:12:08;;;;;;;0.73;0.63;;;20.00;50.70;;;;;;5079800;28;20055;-63
2024/01/27 09:14:34;;;;;;;1.10;0.70;;;20.00;50.70;;;;;;5078232;28;20059;-62
2024/01/27 09:17:00;;;;;;;0.80;0.65;;;20.00;51.30;;;;;;5080003;28;20388;-64
2024/01/27 09:19:26;;;;;;;1.30;0.70;;;20.00;50.70;;;;;;5076137;28;20032;-63
2024/01/27 09:21:52;;;;;;;0.60;0.60;;;20.00;50.70;;;;;;5080387;28;20523;-63
2024/01/27 09:24:17;;;;;;;0.82;0.70;;;20.00;50.80;;;;;;5080614;28;20410;-63
2024/01/27 09:26:43;;;;;;;1.38;0.80;;;20.00;50.70;;;;;;5060982;28;20036;-62
2024/01/27 09:29:09;;;;;;;1.27;0.70;;;20.00;50.80;;;;;;5078694;28;20512;-63
2024/01/27 09:31:35;;;;;;;0.88;0.70;;;20.00;50.70;;;;;;5077331;28;20476;-70
2024/01/27 09:34:01;;;;;;;0.57;0.57;;;20.00;50.70;;;;;;5067151;28;20040;-69
2024/01/27 09:36:26;;;;;;;0.90;0.70;;;20.00;50.70;;;;;;5079364;28;20119;-69
2024/01/27 09:38:52;;;;;;;1.13;0.85;;;20.00;50.80;;;;;;5092995;28;20051;-69
2024/01/27 09:41:18;;;;;;;1.00;0.80;;;19.90;50.70;;;;;;5078205;28;20020;-70
2024/01/27 09:43:45;;;;;;;1.45;0.80;;;19.90;50.70;;;;;;5077754;28;20020;-69
2024/01/27 09:46:15;;;;;;;1.55;0.90;;;19.90;50.70;;;;;;5058637;28;20067;-69
2024/01/27 09:48:41;;;;;;;1.25;0.90;;;19.90;50.70;;;;;;5079001;28;20371;-69
2024/01/27 09:51:09;;;;;;;1.50;0.90;;;19.90;50.70;;;;;;5077587;28;20039;-64
2024/01/27 09:53:35;;;;;;;1.83;0.95;;;20.00;50.70;;;;;;5079790;28;20344;-63
2024/01/27 09:56:01;;;;;;;1.55;1.00;;;19.90;50.70;;;;;;5078759;28;20051;-63
2024/01/27 09:58:28;;;;;;;2.10;1.10;;;19.90;50.70;;;;;;5081275;28;20026;-63
2024/01/27 10:00:57;;;;;;;1.58;0.90;;;19.90;50.70;;;;;;5082652;28;20060;-64
2024/01/27 10:03:27;;;;;;;1.45;0.90;;;19.90;50.70;;;;;;5082537;28;20037;-65
2024/01/27 10:05:57;;;;;;;1.38;0.90;;;19.90;50.70;;;;;;5081980;28;20031;-63
2024/01/27 10:08:24;;;;;;;1.63;0.98;;;19.90;50.70;;;;;;5084379;28;20515;-64
2024/01/27 10:10:58;;;;;;;2.15;1.10;;;19.90;50.70;;;;;;5082784;28;20480;-70
2024/01/27 10:13:26;;;;;;;1.65;1.10;;;19.90;50.70;;;;;;5083671;28;20359;-70
2024/01/27 10:16:06;;;;;;;1.50;0.90;;;19.90;50.70;;;;;;5083723;28;20036;-70
2024/01/27 10:18:33;;;;;;;1.70;1.10;;;19.90;51.30;;;;;;5082040;28;20060;-70
2024/01/27 10:20:58;;;;;;;1.80;1.00;;;19.90;50.80;;;;;;5081660;28;20017;-71
2024/01/27 10:23:24;;;;;;;1.98;1.10;;;19.90;50.80;;;;;;5079578;28;20539;-70
2024/01/27 10:25:50;;;;;;;1.60;1.00;;;19.90;50.80;;;;;;5081130;28;20090;-71
2024/01/27 10:28:17;;;;;;;1.67;1.13;;;19.90;50.80;;;;;;5082288;28;20057;-69
2024/01/27 10:30:48;;;;;;;2.03;1.10;;;19.90;50.80;;;;;;5080158;28;20029;-70
2024/01/27 10:33:13;;;;;;;2.40;1.20;;;19.90;50.80;;;;;;5080947;28;20043;-71
2024/01/27 10:35:45;;;;;;;1.60;1.00;;;19.90;50.80;;;;;;5080576;28;20024;-68
2024/01/27 10:38:11;;;;;;;2.22;1.27;;;19.90;50.80;;;;;;5079817;28;20508;-70
2024/01/27 10:40:37;;;;;;;2.38;1.10;;;19.90;50.80;;;;;;5081075;28;20024;-68
2024/01/27 10:43:07;;;;;;;2.10;1.23;;;19.90;50.80;;;;;;5081030;28;20157;-65
2024/01/27 10:45:42;;;;;;;2.05;1.30;;;19.90;50.80;;;;;;5081365;28;20421;-63
2024/01/27 10:48:10;;;;;;;2.20;1.20;;;19.90;50.90;;;;;;5062989;28;20039;-63
2024/01/27 10:50:41;;;;;;;2.53;1.38;;;19.90;50.80;;;;;;5079993;28;20420;-64
2024/01/27 10:53:22;;;;;;;2.17;1.20;;;19.90;50.90;;;;;;5081491;28;20493;-63
2024/01/27 10:55:49;;;;;;;1.95;1.20;;;19.90;50.90;;;;;;5080855;28;20106;-63
2024/01/27 10:58:15;;;;;;;2.17;1.30;;;19.90;50.90;;;;;;5082370;28;20020;-63
2024/01/27 11:00:43;;;;;;;2.25;1.35;;;19.90;50.90;;;;;;5071742;28;20017;-64
2024/01/27 11:03:11;;;;;;;2.40;1.30;;;19.80;50.80;;;;;;5081329;28;20032;-68
2024/01/27 11:05:37;;;;;;;1.88;1.20;;;19.90;50.90;;;;;;5080848;28;20035;-68
2024/01/27 11:08:05;;;;;;;2.10;1.25;;;19.80;50.80;;;;;;5079235;28;20025;-68
2024/01/27 11:10:35;;;;;;;2.50;1.20;;;19.80;50.80;;;;;;5081409;28;20585;-68
2024/01/27 11:13:03;;;;;;;1.65;1.10;;;19.80;50.80;;;;;;5078484;28;20115;-68
2024/01/27 11:15:29;;;;;;;2.00;1.30;;;19.80;50.80;;;;;;5080508;28;20029;-68
2024/01/27 11:17:59;;;;;;;2.22;1.30;;;19.80;50.80;;;;;;5080011;28;20494;-68
2024/01/27 11:20:25;;;;;;;1.98;1.30;;;19.80;50.80;;;;;;5077228;28;20059;-69
2024/01/27 11:22:52;;;;;;;3.38;1.45;;;19.80;50.90;;;;;;5063855;28;20090;-62
2024/01/27 11:25:18;;;;;;;2.50;1.48;;;19.90;51.10;;;;;;5080755;28;20028;-63
2024/01/27 11:27:46;;;;;;;2.30;1.40;;;19.90;51.00;;;;;;5081727;28;20093;-63
2024/01/27 11:30:29;;;;;;;2.53;1.27;;;19.90;50.80;;;;;;5079647;28;20492;-62
2024/01/27 11:32:57;;;;;;;2.03;1.20;;;20.00;50.90;;;;;;5079337;28;20396;-62
2024/01/27 11:35:23;;;;;;;2.05;1.10;;;20.10;50.90;;;;;;5077693;28;20074;-63
2024/01/27 11:37:49;;;;;;;2.30;1.10;;;20.10;50.70;;;;;;5080085;28;20111;-64
2024/01/27 11:40:15;;;;;;;1.50;0.95;;;20.10;50.70;;;;;;5080538;28;20103;-64
2024/01/27 11:42:42;;;;;;;2.17;1.20;;;20.10;50.60;;;;;;5080077;28;20365;-63
2024/01/27 11:45:10;;;;;;;2.00;1.05;;;20.20;50.70;;;;;;5062527;28;20459;-63
2024/01/27 11:47:36;;;;;;;2.13;1.00;;;20.20;50.60;;;;;;5080573;28;20606;-64
2024/01/27 11:50:03;;;;;;;2.00;1.17;;;20.30;50.60;;;;;;5060752;28;20044;-64
2024/01/27 11:52:28;;;;;;;1.80;1.00;;;20.30;50.60;;;;;;5082611;28;20096;-63
2024/01/27 11:54:58;;;;;;;1.98;1.20;;;20.30;50.60;;;;;;5081477;28;20498;-63
2024/01/27 11:57:25;;;;;;;2.50;1.20;;;20.30;50.70;;;;;;5081588;28;20024;-64
2024/01/27 11:59:51;;;;;;;2.10;1.20;;;20.40;50.60;;;;;;5078795;28;20054;-64
2024/01/27 12:02:17;;;;;;;1.35;0.93;;;20.40;50.50;;;;;;5080541;28;20020;-63
2024/01/27 12:04:43;;;;;;;1.85;1.00;;;20.40;50.50;;;;;;5082913;28;20396;-63
2024/01/27 12:07:09;;;;;;;1.42;0.98;;;20.50;50.60;;;;;;5084190;28;20548;-63
2024/01/27 12:09:38;;;;;;;1.67;1.10;;;20.50;50.50;;;;;;5080934;28;20036;-64
2024/01/27 12:12:04;;;;;;;1.85;1.00;;;20.50;50.60;;;;;;5080609;28;20037;-70
2024/01/27 12:14:47;;;;;;;1.52;0.93;;;20.50;50.50;;;;;;5079941;28;20036;-69
2024/01/27 12:17:13;;;;;;;1.45;0.98;;;20.60;50.40;;;;;;5080285;28;20073;-69
2024/01/27 12:19:45;;;;;;;1.67;1.10;;;20.60;50.30;;;;;;5079156;28;20105;-70
2024/01/27 12:22:21;;;;;;;1.75;1.08;;;20.60;50.20;;;;;;5076436;28;20479;-70
2024/01/27 12:24:47;;;;;;;2.67;1.00;;;20.70;50.20;;;;;;5079428;28;20032;-69
2024/01/27 12:27:12;;;;;;;2.30;1.20;;;20.70;50.20;;;;;;5080748;28;20028;-68
2024/01/27 12:29:41;;;;;;;1.85;1.00;;;20.70;50.20;;;;;;5079291;28;20399;-69
2024/01/27 12:32:07;;;;;;;2.30;0.93;;;20.70;50.10;;;;;;5080327;28;20040;-69
2024/01/27 12:34:33;;;;;;;1.75;1.02;;;20.80;50.20;;;;;;5079251;28;20381;-69
2024/01/27 12:36:58;;;;;;;1.30;0.80;;;20.80;50.10;;;;;;5076154;28;20035;-69
2024/01/27 12:39:26;;;;;;;1.70;1.02;;;20.80;50.20;;;;;;5079240;28;20792;-70
2024/01/27 12:41:51;;;;;;;1.40;0.95;;;20.90;50.20;;;;;;5078645;28;20421;-70
2024/01/27 12:44:17;;;;;;;2.22;0.98;;;20.90;50.10;;;;;;5078489;28;20026;-70